YCM weather

Niagara District Airport
St Catharines, Ontario, Canada

Public forecast

Using degrees Celsius for public forecast. Weather courtesy of forecast.io.

Current aviation weather report (METAR) for Niagara District Airport

Retrieved 2020/01/21 22:00 UTC (29 minutes ago):

CYSN 212200Z 25010G16KT 15SM SCT032 SCT140 BKN250 M04/M09 A3045 RMK SC3AC1CI1 SLP320

Aviation forecast (TAF) for Niagara District Airport

Retrieved 2020/01/21 20:00 UTC (2 hours ago):

TAF CYSN 211938Z 2120/2202 25012G22KT P6SM BKN030 BKN120 TEMPO 2120/2202 OVC020 RMK NXT FCST WILL BE ISSUED AT 221345Z